sensor_id;sensor_type;location;lat;lon;timestamp;temperature;humidity
50512;DHT22;36446;47.642;-3.018;2022-09-21T00:00:37;15.60;95.50
50512;DHT22;36446;47.642;-3.018;2022-09-21T00:03:03;15.60;95.60
50512;DHT22;36446;47.642;-3.018;2022-09-21T00:05:30;15.60;95.60
50512;DHT22;36446;47.642;-3.018;2022-09-21T00:07:59;15.50;95.60
50512;DHT22;36446;47.642;-3.018;2022-09-21T00:10:25;15.50;95.90
50512;DHT22;36446;47.642;-3.018;2022-09-21T00:12:51;15.50;95.80
50512;DHT22;36446;47.642;-3.018;2022-09-21T00:15:17;15.50;95.70
50512;DHT22;36446;47.642;-3.018;2022-09-21T00:17:44;15.40;95.70
50512;DHT22;36446;47.642;-3.018;2022-09-21T00:20:09;15.30;96.00
50512;DHT22;36446;47.642;-3.018;2022-09-21T00:22:35;15.30;96.00
50512;DHT22;36446;47.642;-3.018;2022-09-21T00:25:03;15.30;96.00
50512;DHT22;36446;47.642;-3.018;2022-09-21T00:27:30;15.30;96.00
50512;DHT22;36446;47.642;-3.018;2022-09-21T00:29:57;15.30;96.10
50512;DHT22;36446;47.642;-3.018;2022-09-21T00:32:25;15.30;96.10
50512;DHT22;36446;47.642;-3.018;2022-09-21T00:34:51;15.20;96.10
50512;DHT22;36446;47.642;-3.018;2022-09-21T00:37:18;15.30;96.10
50512;DHT22;36446;47.642;-3.018;2022-09-21T00:39:44;15.30;95.90
50512;DHT22;36446;47.642;-3.018;2022-09-21T00:42:24;15.30;96.00
50512;DHT22;36446;47.642;-3.018;2022-09-21T00:44:50;15.20;96.00
50512;DHT22;36446;47.642;-3.018;2022-09-21T00:47:22;15.20;95.90
50512;DHT22;36446;47.642;-3.018;2022-09-21T00:49:52;15.20;96.10
50512;DHT22;36446;47.642;-3.018;2022-09-21T00:52:21;15.10;96.10
50512;DHT22;36446;47.642;-3.018;2022-09-21T00:55:02;15.10;96.20
50512;DHT22;36446;47.642;-3.018;2022-09-21T00:57:30;15.10;96.10
50512;DHT22;36446;47.642;-3.018;2022-09-21T00:59:59;15.10;96.10
50512;DHT22;36446;47.642;-3.018;2022-09-21T01:02:26;15.20;96.00
50512;DHT22;36446;47.642;-3.018;2022-09-21T01:04:53;15.20;95.90
50512;DHT22;36446;47.642;-3.018;2022-09-21T01:07:22;15.10;96.00
50512;DHT22;36446;47.642;-3.018;2022-09-21T01:09:51;14.90;96.40
50512;DHT22;36446;47.642;-3.018;2022-09-21T01:18:44;14.70;96.60
50512;DHT22;36446;47.642;-3.018;2022-09-21T01:21:17;14.70;96.60
50512;DHT22;36446;47.642;-3.018;2022-09-21T01:24:33;14.70;96.40
50512;DHT22;36446;47.642;-3.018;2022-09-21T01:30:05;14.80;96.50
50512;DHT22;36446;47.642;-3.018;2022-09-21T01:32:36;14.90;96.20
50512;DHT22;36446;47.642;-3.018;2022-09-21T01:35:28;14.90;96.40
50512;DHT22;36446;47.642;-3.018;2022-09-21T01:38:01;14.90;96.30
50512;DHT22;36446;47.642;-3.018;2022-09-21T01:40:32;15.00;96.40
50512;DHT22;36446;47.642;-3.018;2022-09-21T01:43:00;14.90;96.40
50512;DHT22;36446;47.642;-3.018;2022-09-21T01:45:30;14.80;96.30
50512;DHT22;36446;47.642;-3.018;2022-09-21T01:47:59;14.90;96.20
50512;DHT22;36446;47.642;-3.018;2022-09-21T01:50:30;14.80;96.30
50512;DHT22;36446;47.642;-3.018;2022-09-21T01:53:04;14.80;96.30
50512;DHT22;36446;47.642;-3.018;2022-09-21T01:55:38;14.60;96.40
50512;DHT22;36446;47.642;-3.018;2022-09-21T02:00:44;14.50;96.60
50512;DHT22;36446;47.642;-3.018;2022-09-21T02:05:52;14.10;97.40
50512;DHT22;36446;47.642;-3.018;2022-09-21T02:08:18;14.10;97.30
50512;DHT22;36446;47.642;-3.018;2022-09-21T02:10:48;14.30;97.00
50512;DHT22;36446;47.642;-3.018;2022-09-21T02:13:17;14.50;96.70
50512;DHT22;36446;47.642;-3.018;2022-09-21T02:21:56;14.60;96.10
50512;DHT22;36446;47.642;-3.018;2022-09-21T02:32:09;14.50;96.30
50512;DHT22;36446;47.642;-3.018;2022-09-21T02:34:43;14.40;96.20
50512;DHT22;36446;47.642;-3.018;2022-09-21T02:37:23;14.40;96.30
50512;DHT22;36446;47.642;-3.018;2022-09-21T02:42:35;14.40;96.20
50512;DHT22;36446;47.642;-3.018;2022-09-21T02:47:33;14.20;96.00
50512;DHT22;36446;47.642;-3.018;2022-09-21T02:50:05;14.20;96.00
50512;DHT22;36446;47.642;-3.018;2022-09-21T02:52:34;14.10;95.90
50512;DHT22;36446;47.642;-3.018;2022-09-21T02:55:02;14.00;96.10
50512;DHT22;36446;47.642;-3.018;2022-09-21T02:57:29;13.90;96.20
50512;DHT22;36446;47.642;-3.018;2022-09-21T02:59:55;14.00;96.40
50512;DHT22;36446;47.642;-3.018;2022-09-21T03:02:21;14.10;96.30
50512;DHT22;36446;47.642;-3.018;2022-09-21T03:04:47;14.00;96.50
50512;DHT22;36446;47.642;-3.018;2022-09-21T03:07:15;13.90;96.30
50512;DHT22;36446;47.642;-3.018;2022-09-21T03:09:41;14.00;96.50
50512;DHT22;36446;47.642;-3.018;2022-09-21T03:12:07;14.00;96.50
50512;DHT22;36446;47.642;-3.018;2022-09-21T03:14:32;13.80;97.40
50512;DHT22;36446;47.642;-3.018;2022-09-21T03:16:58;14.00;97.10
50512;DHT22;36446;47.642;-3.018;2022-09-21T03:19:25;14.10;96.70
50512;DHT22;36446;47.642;-3.018;2022-09-21T03:21:51;14.10;96.70
50512;DHT22;36446;47.642;-3.018;2022-09-21T03:24:16;14.20;96.70
50512;DHT22;36446;47.642;-3.018;2022-09-21T03:27:02;14.20;96.40
50512;DHT22;36446;47.642;-3.018;2022-09-21T03:29:28;14.10;96.40
50512;DHT22;36446;47.642;-3.018;2022-09-21T03:31:54;14.10;96.60
50512;DHT22;36446;47.642;-3.018;2022-09-21T03:34:20;14.00;96.60
50512;DHT22;36446;47.642;-3.018;2022-09-21T03:36:46;14.00;96.70
50512;DHT22;36446;47.642;-3.018;2022-09-21T03:39:13;14.00;96.60
50512;DHT22;36446;47.642;-3.018;2022-09-21T03:41:39;13.90;96.80
50512;DHT22;36446;47.642;-3.018;2022-09-21T03:44:04;13.80;97.10
50512;DHT22;36446;47.642;-3.018;2022-09-21T03:46:30;13.80;96.90
50512;DHT22;36446;47.642;-3.018;2022-09-21T03:49:00;13.90;96.80
50512;DHT22;36446;47.642;-3.018;2022-09-21T03:51:25;13.90;96.60
50512;DHT22;36446;47.642;-3.018;2022-09-21T03:53:51;14.00;96.70
50512;DHT22;36446;47.642;-3.018;2022-09-21T03:56:17;14.10;96.60
50512;DHT22;36446;47.642;-3.018;2022-09-21T03:58:43;14.00;96.60
50512;DHT22;36446;47.642;-3.018;2022-09-21T04:01:09;13.90;96.50
50512;DHT22;36446;47.642;-3.018;2022-09-21T04:03:34;13.90;96.60
50512;DHT22;36446;47.642;-3.018;2022-09-21T04:06:00;14.00;96.40
50512;DHT22;36446;47.642;-3.018;2022-09-21T04:08:32;14.00;96.40
50512;DHT22;36446;47.642;-3.018;2022-09-21T04:10:58;13.80;96.80
50512;DHT22;36446;47.642;-3.018;2022-09-21T04:13:24;13.60;96.80
50512;DHT22;36446;47.642;-3.018;2022-09-21T04:15:50;13.70;96.70
50512;DHT22;36446;47.642;-3.018;2022-09-21T04:18:15;13.70;96.50
50512;DHT22;36446;47.642;-3.018;2022-09-21T04:20:41;13.70;96.90
50512;DHT22;36446;47.642;-3.018;2022-09-21T04:23:07;13.70;96.70
50512;DHT22;36446;47.642;-3.018;2022-09-21T04:25:32;13.80;96.60
50512;DHT22;36446;47.642;-3.018;2022-09-21T04:27:58;13.80;96.50
50512;DHT22;36446;47.642;-3.018;2022-09-21T04:30:24;13.80;96.60
50512;DHT22;36446;47.642;-3.018;2022-09-21T04:32:49;13.80;96.70
50512;DHT22;36446;47.642;-3.018;2022-09-21T04:35:15;13.60;96.40
50512;DHT22;36446;47.642;-3.018;2022-09-21T04:37:41;13.50;96.60
50512;DHT22;36446;47.642;-3.018;2022-09-21T04:40:07;13.40;96.70
50512;DHT22;36446;47.642;-3.018;2022-09-21T04:42:34;13.60;96.80
50512;DHT22;36446;47.642;-3.018;2022-09-21T04:45:00;13.50;96.70
50512;DHT22;36446;47.642;-3.018;2022-09-21T04:47:28;13.60;96.60
50512;DHT22;36446;47.642;-3.018;2022-09-21T04:49:54;13.60;96.60
50512;DHT22;36446;47.642;-3.018;2022-09-21T04:52:20;13.60;96.70
50512;DHT22;36446;47.642;-3.018;2022-09-21T04:54:46;13.60;96.60
50512;DHT22;36446;47.642;-3.018;2022-09-21T04:57:12;13.60;96.70
50512;DHT22;36446;47.642;-3.018;2022-09-21T04:59:38;13.60;96.70
50512;DHT22;36446;47.642;-3.018;2022-09-21T05:02:04;13.60;96.40
50512;DHT22;36446;47.642;-3.018;2022-09-21T05:04:29;13.50;96.60
50512;DHT22;36446;47.642;-3.018;2022-09-21T05:06:55;13.60;96.40
50512;DHT22;36446;47.642;-3.018;2022-09-21T05:09:22;13.50;96.40
50512;DHT22;36446;47.642;-3.018;2022-09-21T05:12:07;13.50;96.70
50512;DHT22;36446;47.642;-3.018;2022-09-21T05:14:32;13.60;96.50
50512;DHT22;36446;47.642;-3.018;2022-09-21T05:16:58;13.60;96.30
50512;DHT22;36446;47.642;-3.018;2022-09-21T05:19:23;13.60;96.40
50512;DHT22;36446;47.642;-3.018;2022-09-21T05:21:49;13.50;96.60
50512;DHT22;36446;47.642;-3.018;2022-09-21T05:24:15;13.50;96.20
50512;DHT22;36446;47.642;-3.018;2022-09-21T05:26:40;13.30;96.30
50512;DHT22;36446;47.642;-3.018;2022-09-21T05:29:07;13.30;96.60
50512;DHT22;36446;47.642;-3.018;2022-09-21T05:31:40;13.30;96.50
50512;DHT22;36446;47.642;-3.018;2022-09-21T05:34:32;13.40;96.50
50512;DHT22;36446;47.642;-3.018;2022-09-21T05:39:55;13.30;96.50
50512;DHT22;36446;47.642;-3.018;2022-09-21T05:42:21;13.30;96.70
50512;DHT22;36446;47.642;-3.018;2022-09-21T05:44:47;13.30;96.60
50512;DHT22;36446;47.642;-3.018;2022-09-21T05:47:29;13.30;96.60
50512;DHT22;36446;47.642;-3.018;2022-09-21T05:56:03;13.30;96.50
50512;DHT22;36446;47.642;-3.018;2022-09-21T05:58:44;13.00;96.60
50512;DHT22;36446;47.642;-3.018;2022-09-21T06:03:53;13.20;96.70
50512;DHT22;36446;47.642;-3.018;2022-09-21T06:06:20;13.20;96.70
50512;DHT22;36446;47.642;-3.018;2022-09-21T06:08:46;13.10;96.70
50512;DHT22;36446;47.642;-3.018;2022-09-21T06:11:12;13.20;96.90
50512;DHT22;36446;47.642;-3.018;2022-09-21T06:13:38;13.30;96.80
50512;DHT22;36446;47.642;-3.018;2022-09-21T06:16:06;13.20;96.50
50512;DHT22;36446;47.642;-3.018;2022-09-21T06:18:39;13.20;96.80
50512;DHT22;36446;47.642;-3.018;2022-09-21T06:21:05;13.30;96.80
50512;DHT22;36446;47.642;-3.018;2022-09-21T06:23:32;13.20;96.70
50512;DHT22;36446;47.642;-3.018;2022-09-21T06:25:57;13.20;96.60
50512;DHT22;36446;47.642;-3.018;2022-09-21T06:28:24;13.10;96.80
50512;DHT22;36446;47.642;-3.018;2022-09-21T06:30:51;13.20;96.80
50512;DHT22;36446;47.642;-3.018;2022-09-21T06:33:17;13.20;96.70
50512;DHT22;36446;47.642;-3.018;2022-09-21T06:38:16;13.20;96.80
50512;DHT22;36446;47.642;-3.018;2022-09-21T06:40:42;13.20;97.30
50512;DHT22;36446;47.642;-3.018;2022-09-21T06:43:07;13.20;97.00
50512;DHT22;36446;47.642;-3.018;2022-09-21T06:45:33;13.30;96.90
50512;DHT22;36446;47.642;-3.018;2022-09-21T06:47:59;13.20;97.20
50512;DHT22;36446;47.642;-3.018;2022-09-21T06:50:24;13.30;97.20
50512;DHT22;36446;47.642;-3.018;2022-09-21T06:52:50;13.30;97.40
50512;DHT22;36446;47.642;-3.018;2022-09-21T06:55:16;13.30;97.20
50512;DHT22;36446;47.642;-3.018;2022-09-21T06:57:41;13.30;97.40
50512;DHT22;36446;47.642;-3.018;2022-09-21T07:00:10;13.40;97.30
50512;DHT22;36446;47.642;-3.018;2022-09-21T07:02:36;13.40;97.20
50512;DHT22;36446;47.642;-3.018;2022-09-21T07:05:02;13.40;97.60
50512;DHT22;36446;47.642;-3.018;2022-09-21T07:07:28;13.40;97.60
50512;DHT22;36446;47.642;-3.018;2022-09-21T07:09:57;13.50;97.50
50512;DHT22;36446;47.642;-3.018;2022-09-21T07:12:29;13.50;97.70
50512;DHT22;36446;47.642;-3.018;2022-09-21T07:14:58;13.50;97.80
50512;DHT22;36446;47.642;-3.018;2022-09-21T07:17:23;13.60;97.60
50512;DHT22;36446;47.642;-3.018;2022-09-21T07:19:49;13.60;97.70
50512;DHT22;36446;47.642;-3.018;2022-09-21T07:22:15;13.70;97.60
50512;DHT22;36446;47.642;-3.018;2022-09-21T07:24:40;13.60;97.80
50512;DHT22;36446;47.642;-3.018;2022-09-21T07:27:06;13.60;98.00
50512;DHT22;36446;47.642;-3.018;2022-09-21T07:29:31;13.70;98.00
50512;DHT22;36446;47.642;-3.018;2022-09-21T07:31:57;13.70;98.10
50512;DHT22;36446;47.642;-3.018;2022-09-21T07:34:23;13.80;98.10
50512;DHT22;36446;47.642;-3.018;2022-09-21T07:36:48;13.80;98.00
50512;DHT22;36446;47.642;-3.018;2022-09-21T07:39:14;13.80;98.00
50512;DHT22;36446;47.642;-3.018;2022-09-21T07:41:40;13.90;97.70
50512;DHT22;36446;47.642;-3.018;2022-09-21T07:44:05;13.90;97.60
50512;DHT22;36446;47.642;-3.018;2022-09-21T07:46:31;14.00;98.00
50512;DHT22;36446;47.642;-3.018;2022-09-21T07:48:56;14.00;97.90
50512;DHT22;36446;47.642;-3.018;2022-09-21T07:51:22;14.00;98.30
50512;DHT22;36446;47.642;-3.018;2022-09-21T07:53:53;13.90;98.40
50512;DHT22;36446;47.642;-3.018;2022-09-21T07:56:21;14.00;98.10
50512;DHT22;36446;47.642;-3.018;2022-09-21T07:58:47;14.10;97.80
50512;DHT22;36446;47.642;-3.018;2022-09-21T08:01:38;14.20;97.80
50512;DHT22;36446;47.642;-3.018;2022-09-21T08:04:06;14.20;98.20
50512;DHT22;36446;47.642;-3.018;2022-09-21T08:06:32;14.20;97.60
50512;DHT22;36446;47.642;-3.018;2022-09-21T08:09:00;14.30;97.60
50512;DHT22;36446;47.642;-3.018;2022-09-21T08:11:27;14.30;97.60
50512;DHT22;36446;47.642;-3.018;2022-09-21T08:13:56;14.40;97.80
50512;DHT22;36446;47.642;-3.018;2022-09-21T08:16:22;14.40;97.40
50512;DHT22;36446;47.642;-3.018;2022-09-21T08:18:48;14.50;97.70
50512;DHT22;36446;47.642;-3.018;2022-09-21T08:21:15;14.50;97.70
50512;DHT22;36446;47.642;-3.018;2022-09-21T08:23:41;14.60;97.80
50512;DHT22;36446;47.642;-3.018;2022-09-21T08:26:09;14.60;97.90
50512;DHT22;36446;47.642;-3.018;2022-09-21T08:28:35;14.60;98.20
50512;DHT22;36446;47.642;-3.018;2022-09-21T08:31:06;14.60;97.40
50512;DHT22;36446;47.642;-3.018;2022-09-21T08:33:34;14.70;97.30
50512;DHT22;36446;47.642;-3.018;2022-09-21T08:36:01;14.70;97.30
50512;DHT22;36446;47.642;-3.018;2022-09-21T08:38:32;14.80;97.60
50512;DHT22;36446;47.642;-3.018;2022-09-21T08:41:00;14.80;97.70
50512;DHT22;36446;47.642;-3.018;2022-09-21T08:43:42;14.80;97.30
50512;DHT22;36446;47.642;-3.018;2022-09-21T08:46:20;14.90;97.60
50512;DHT22;36446;47.642;-3.018;2022-09-21T08:49:00;15.00;97.20
50512;DHT22;36446;47.642;-3.018;2022-09-21T08:51:35;15.00;97.20
50512;DHT22;36446;47.642;-3.018;2022-09-21T08:56:57;15.10;97.20
50512;DHT22;36446;47.642;-3.018;2022-09-21T08:59:23;15.20;97.30
50512;DHT22;36446;47.642;-3.018;2022-09-21T09:21:05;15.70;96.10
50512;DHT22;36446;47.642;-3.018;2022-09-21T09:23:36;15.70;95.90
50512;DHT22;36446;47.642;-3.018;2022-09-21T09:26:09;15.80;96.00
50512;DHT22;36446;47.642;-3.018;2022-09-21T09:28:51;15.90;95.60
50512;DHT22;36446;47.642;-3.018;2022-09-21T09:31:30;16.00;95.70
50512;DHT22;36446;47.642;-3.018;2022-09-21T09:36:32;16.20;95.20
50512;DHT22;36446;47.642;-3.018;2022-09-21T09:39:10;16.30;95.20
50512;DHT22;36446;47.642;-3.018;2022-09-21T09:42:23;16.30;95.10
50512;DHT22;36446;47.642;-3.018;2022-09-21T09:50:34;16.40;95.10
50512;DHT22;36446;47.642;-3.018;2022-09-21T09:53:10;16.30;94.60
50512;DHT22;36446;47.642;-3.018;2022-09-21T09:55:39;16.40;94.70
50512;DHT22;36446;47.642;-3.018;2022-09-21T09:58:16;16.50;94.70
50512;DHT22;36446;47.642;-3.018;2022-09-21T10:00:43;16.60;94.40
50512;DHT22;36446;47.642;-3.018;2022-09-21T10:03:17;16.60;94.20
50512;DHT22;36446;47.642;-3.018;2022-09-21T10:05:43;16.60;94.20
50512;DHT22;36446;47.642;-3.018;2022-09-21T10:08:48;16.80;94.20
50512;DHT22;36446;47.642;-3.018;2022-09-21T10:11:15;16.80;94.10
50512;DHT22;36446;47.642;-3.018;2022-09-21T10:13:42;16.80;94.00
50512;DHT22;36446;47.642;-3.018;2022-09-21T10:16:21;16.80;94.20
50512;DHT22;36446;47.642;-3.018;2022-09-21T10:18:51;17.00;94.40
50512;DHT22;36446;47.642;-3.018;2022-09-21T10:21:25;17.10;93.90
50512;DHT22;36446;47.642;-3.018;2022-09-21T10:23:56;17.10;93.90
50512;DHT22;36446;47.642;-3.018;2022-09-21T10:26:23;17.00;94.00
50512;DHT22;36446;47.642;-3.018;2022-09-21T10:29:00;17.20;93.90
50512;DHT22;36446;47.642;-3.018;2022-09-21T10:31:28;17.30;93.90
50512;DHT22;36446;47.642;-3.018;2022-09-21T10:36:31;17.30;93.60
50512;DHT22;36446;47.642;-3.018;2022-09-21T10:44:49;17.30;93.50
50512;DHT22;36446;47.642;-3.018;2022-09-21T10:49:56;17.50;93.50
50512;DHT22;36446;47.642;-3.018;2022-09-21T10:52:38;17.60;93.40
50512;DHT22;36446;47.642;-3.018;2022-09-21T10:55:13;17.60;93.30
50512;DHT22;36446;47.642;-3.018;2022-09-21T10:57:40;17.70;93.40
50512;DHT22;36446;47.642;-3.018;2022-09-21T11:02:54;17.80;93.20
50512;DHT22;36446;47.642;-3.018;2022-09-21T11:05:25;17.80;93.10
50512;DHT22;36446;47.642;-3.018;2022-09-21T11:08:15;17.90;92.90
50512;DHT22;36446;47.642;-3.018;2022-09-21T11:13:56;17.90;92.80
50512;DHT22;36446;47.642;-3.018;2022-09-21T11:16:32;18.00;92.80
50512;DHT22;36446;47.642;-3.018;2022-09-21T11:21:50;18.00;92.90
50512;DHT22;36446;47.642;-3.018;2022-09-21T11:24:22;18.30;92.40
50512;DHT22;36446;47.642;-3.018;2022-09-21T11:29:40;18.30;92.20
50512;DHT22;36446;47.642;-3.018;2022-09-21T11:38:12;18.50;92.30
50512;DHT22;36446;47.642;-3.018;2022-09-21T11:55:03;18.50;92.00
50512;DHT22;36446;47.642;-3.018;2022-09-21T12:15:10;18.80;91.30
50512;DHT22;36446;47.642;-3.018;2022-09-21T12:20:22;19.10;91.40
50512;DHT22;36446;47.642;-3.018;2022-09-21T12:22:55;19.20;91.20
50512;DHT22;36446;47.642;-3.018;2022-09-21T12:25:34;19.20;91.00
50512;DHT22;36446;47.642;-3.018;2022-09-21T12:30:33;19.30;91.10
50512;DHT22;36446;47.642;-3.018;2022-09-21T12:33:22;19.30;90.80
50512;DHT22;36446;47.642;-3.018;2022-09-21T12:35:55;19.20;90.90
50512;DHT22;36446;47.642;-3.018;2022-09-21T12:38:48;19.10;91.00
50512;DHT22;36446;47.642;-3.018;2022-09-21T12:41:36;19.30;90.80
50512;DHT22;36446;47.642;-3.018;2022-09-21T12:44:30;19.50;90.50
50512;DHT22;36446;47.642;-3.018;2022-09-21T12:47:08;19.50;90.50
50512;DHT22;36446;47.642;-3.018;2022-09-21T12:49:46;19.60;90.30
50512;DHT22;36446;47.642;-3.018;2022-09-21T12:52:22;19.60;90.40
50512;DHT22;36446;47.642;-3.018;2022-09-21T12:55:03;19.80;90.30
50512;DHT22;36446;47.642;-3.018;2022-09-21T13:00:37;20.00;89.90
50512;DHT22;36446;47.642;-3.018;2022-09-21T13:03:20;19.90;90.70
50512;DHT22;36446;47.642;-3.018;2022-09-21T13:08:41;19.80;90.20
50512;DHT22;36446;47.642;-3.018;2022-09-21T13:11:08;19.70;90.40
50512;DHT22;36446;47.642;-3.018;2022-09-21T13:13:44;19.60;90.30
50512;DHT22;36446;47.642;-3.018;2022-09-21T13:16:32;19.50;90.50
50512;DHT22;36446;47.642;-3.018;2022-09-21T13:19:20;19.60;90.10
50512;DHT22;36446;47.642;-3.018;2022-09-21T13:21:46;19.60;90.00
50512;DHT22;36446;47.642;-3.018;2022-09-21T13:24:32;19.60;90.30
50512;DHT22;36446;47.642;-3.018;2022-09-21T13:26:58;19.60;90.30
50512;DHT22;36446;47.642;-3.018;2022-09-21T13:29:31;19.80;90.00
50512;DHT22;36446;47.642;-3.018;2022-09-21T13:34:40;19.70;89.30
50512;DHT22;36446;47.642;-3.018;2022-09-21T13:47:38;19.50;90.60
50512;DHT22;36446;47.642;-3.018;2022-09-21T13:52:54;19.60;89.80
50512;DHT22;36446;47.642;-3.018;2022-09-21T13:55:30;20.00;88.90
50512;DHT22;36446;47.642;-3.018;2022-09-21T13:58:00;20.10;88.60
50512;DHT22;36446;47.642;-3.018;2022-09-21T14:00:36;19.90;89.00
50512;DHT22;36446;47.642;-3.018;2022-09-21T14:03:31;20.10;88.00
50512;DHT22;36446;47.642;-3.018;2022-09-21T14:06:21;20.20;88.00
50512;DHT22;36446;47.642;-3.018;2022-09-21T14:08:54;20.30;88.70
50512;DHT22;36446;47.642;-3.018;2022-09-21T14:11:35;20.20;88.90
50512;DHT22;36446;47.642;-3.018;2022-09-21T14:25:14;20.40;88.10
50512;DHT22;36446;47.642;-3.018;2022-09-21T14:27:42;20.40;87.20
50512;DHT22;36446;47.642;-3.018;2022-09-21T14:30:21;20.40;87.10
50512;DHT22;36446;47.642;-3.018;2022-09-21T14:35:51;20.30;87.20
50512;DHT22;36446;47.642;-3.018;2022-09-21T14:38:24;20.30;88.00
50512;DHT22;36446;47.642;-3.018;2022-09-21T14:40:58;20.20;88.60
50512;DHT22;36446;47.642;-3.018;2022-09-21T14:43:30;20.30;87.80
50512;DHT22;36446;47.642;-3.018;2022-09-21T15:07:59;20.40;87.90
50512;DHT22;36446;47.642;-3.018;2022-09-21T15:11:05;20.70;87.00
50512;DHT22;36446;47.642;-3.018;2022-09-21T15:19:25;20.90;86.60
50512;DHT22;36446;47.642;-3.018;2022-09-21T15:21:55;21.00;86.60
50512;DHT22;36446;47.642;-3.018;2022-09-21T15:24:32;21.00;86.80
50512;DHT22;36446;47.642;-3.018;2022-09-21T15:27:10;21.00;85.30
50512;DHT22;36446;47.642;-3.018;2022-09-21T15:29:42;20.90;84.80
50512;DHT22;36446;47.642;-3.018;2022-09-21T15:35:04;20.90;86.00
50512;DHT22;36446;47.642;-3.018;2022-09-21T15:37:35;20.90;87.00
50512;DHT22;36446;47.642;-3.018;2022-09-21T15:40:04;21.00;87.20
50512;DHT22;36446;47.642;-3.018;2022-09-21T15:42:30;20.90;86.00
50512;DHT22;36446;47.642;-3.018;2022-09-21T15:45:27;21.00;85.90
50512;DHT22;36446;47.642;-3.018;2022-09-21T15:47:54;21.10;85.00
50512;DHT22;36446;47.642;-3.018;2022-09-21T15:50:21;21.30;85.10
50512;DHT22;36446;47.642;-3.018;2022-09-21T15:52:52;21.40;84.90
50512;DHT22;36446;47.642;-3.018;2022-09-21T15:55:21;21.20;86.40
50512;DHT22;36446;47.642;-3.018;2022-09-21T15:57:49;21.20;85.60
50512;DHT22;36446;47.642;-3.018;2022-09-21T16:03:03;21.50;84.40
50512;DHT22;36446;47.642;-3.018;2022-09-21T16:10:47;21.60;83.30
50512;DHT22;36446;47.642;-3.018;2022-09-21T16:13:20;21.50;83.80
50512;DHT22;36446;47.642;-3.018;2022-09-21T16:16:14;21.60;84.10
50512;DHT22;36446;47.642;-3.018;2022-09-21T16:18:52;21.70;84.70
50512;DHT22;36446;47.642;-3.018;2022-09-21T16:21:34;21.60;84.70
50512;DHT22;36446;47.642;-3.018;2022-09-21T16:24:17;21.40;84.90
50512;DHT22;36446;47.642;-3.018;2022-09-21T16:26:55;21.40;84.20
50512;DHT22;36446;47.642;-3.018;2022-09-21T16:29:36;21.60;84.90
50512;DHT22;36446;47.642;-3.018;2022-09-21T16:34:46;21.80;84.40
50512;DHT22;36446;47.642;-3.018;2022-09-21T16:39:51;21.40;87.60
50512;DHT22;36446;47.642;-3.018;2022-09-21T16:42:17;21.30;88.20
50512;DHT22;36446;47.642;-3.018;2022-09-21T16:44:44;21.30;88.40
50512;DHT22;36446;47.642;-3.018;2022-09-21T16:47:19;21.10;88.80
50512;DHT22;36446;47.642;-3.018;2022-09-21T16:49:53;21.00;89.40
50512;DHT22;36446;47.642;-3.018;2022-09-21T16:52:21;21.10;89.60
50512;DHT22;36446;47.642;-3.018;2022-09-21T16:54:48;20.80;89.60
50512;DHT22;36446;47.642;-3.018;2022-09-21T16:57:15;20.90;90.10
50512;DHT22;36446;47.642;-3.018;2022-09-21T16:59:41;21.00;90.10
50512;DHT22;36446;47.642;-3.018;2022-09-21T17:02:09;21.10;90.00
50512;DHT22;36446;47.642;-3.018;2022-09-21T17:04:35;20.70;90.20
50512;DHT22;36446;47.642;-3.018;2022-09-21T17:07:01;20.50;90.50
50512;DHT22;36446;47.642;-3.018;2022-09-21T17:09:35;20.40;90.80
50512;DHT22;36446;47.642;-3.018;2022-09-21T17:12:07;20.70;90.80
50512;DHT22;36446;47.642;-3.018;2022-09-21T17:14:42;20.50;91.10
50512;DHT22;36446;47.642;-3.018;2022-09-21T17:17:23;20.60;90.70
50512;DHT22;36446;47.642;-3.018;2022-09-21T17:19:50;20.20;90.80
50512;DHT22;36446;47.642;-3.018;2022-09-21T17:22:17;20.00;91.30
50512;DHT22;36446;47.642;-3.018;2022-09-21T17:24:47;20.10;91.30
50512;DHT22;36446;47.642;-3.018;2022-09-21T17:27:21;20.10;91.20
50512;DHT22;36446;47.642;-3.018;2022-09-21T17:29:47;20.10;91.50
50512;DHT22;36446;47.642;-3.018;2022-09-21T17:32:19;19.90;91.50
50512;DHT22;36446;47.642;-3.018;2022-09-21T17:34:46;20.00;91.60
50512;DHT22;36446;47.642;-3.018;2022-09-21T17:37:14;19.90;91.40
50512;DHT22;36446;47.642;-3.018;2022-09-21T17:39:40;19.90;91.00
50512;DHT22;36446;47.642;-3.018;2022-09-21T17:42:16;19.90;90.90
50512;DHT22;36446;47.642;-3.018;2022-09-21T17:45:08;19.80;91.00
50512;DHT22;36446;47.642;-3.018;2022-09-21T17:47:40;19.80;91.10
50512;DHT22;36446;47.642;-3.018;2022-09-21T17:52:38;19.40;91.10
50512;DHT22;36446;47.642;-3.018;2022-09-21T17:55:23;19.40;91.50
50512;DHT22;36446;47.642;-3.018;2022-09-21T18:00:40;19.30;91.30
50512;DHT22;36446;47.642;-3.018;2022-09-21T18:03:22;19.30;91.50
50512;DHT22;36446;47.642;-3.018;2022-09-21T18:05:50;19.20;91.50
50512;DHT22;36446;47.642;-3.018;2022-09-21T18:08:17;19.10;91.60
50512;DHT22;36446;47.642;-3.018;2022-09-21T18:11:00;18.90;91.70
50512;DHT22;36446;47.642;-3.018;2022-09-21T18:21:22;18.60;92.00
50512;DHT22;36446;47.642;-3.018;2022-09-21T18:26:17;18.30;92.70
50512;DHT22;36446;47.642;-3.018;2022-09-21T18:28:47;18.40;92.50
50512;DHT22;36446;47.642;-3.018;2022-09-21T18:36:34;18.30;92.60
50512;DHT22;36446;47.642;-3.018;2022-09-21T18:44:45;18.00;93.10
50512;DHT22;36446;47.642;-3.018;2022-09-21T18:47:29;18.00;93.00
50512;DHT22;36446;47.642;-3.018;2022-09-21T18:55:22;17.80;93.60
50512;DHT22;36446;47.642;-3.018;2022-09-21T18:57:55;17.50;93.90
50512;DHT22;36446;47.642;-3.018;2022-09-21T19:00:23;17.70;93.70
50512;DHT22;36446;47.642;-3.018;2022-09-21T19:02:49;17.70;93.60
50512;DHT22;36446;47.642;-3.018;2022-09-21T19:05:16;17.80;93.60
50512;DHT22;36446;47.642;-3.018;2022-09-21T19:08:07;17.60;93.80
50512;DHT22;36446;47.642;-3.018;2022-09-21T19:10:50;17.70;93.70
50512;DHT22;36446;47.642;-3.018;2022-09-21T19:13:40;17.70;93.70
50512;DHT22;36446;47.642;-3.018;2022-09-21T19:16:21;17.60;93.70
50512;DHT22;36446;47.642;-3.018;2022-09-21T19:21:51;17.50;93.90
50512;DHT22;36446;47.642;-3.018;2022-09-21T19:24:33;17.50;93.90
50512;DHT22;36446;47.642;-3.018;2022-09-21T19:27:30;17.40;94.00
50512;DHT22;36446;47.642;-3.018;2022-09-21T19:30:08;17.50;93.90
50512;DHT22;36446;47.642;-3.018;2022-09-21T19:32:46;17.30;94.00
50512;DHT22;36446;47.642;-3.018;2022-09-21T19:35:20;17.30;94.30
50512;DHT22;36446;47.642;-3.018;2022-09-21T19:37:47;17.30;94.10
50512;DHT22;36446;47.642;-3.018;2022-09-21T19:40:14;17.30;94.20
50512;DHT22;36446;47.642;-3.018;2022-09-21T19:48:29;17.30;94.10
50512;DHT22;36446;47.642;-3.018;2022-09-21T19:50:59;17.20;94.30
50512;DHT22;36446;47.642;-3.018;2022-09-21T19:53:25;17.20;94.20
50512;DHT22;36446;47.642;-3.018;2022-09-21T19:56:16;17.20;94.20
50512;DHT22;36446;47.642;-3.018;2022-09-21T19:59:00;17.10;94.30
50512;DHT22;36446;47.642;-3.018;2022-09-21T20:01:54;17.10;94.20
50512;DHT22;36446;47.642;-3.018;2022-09-21T20:04:35;17.00;94.30